sensor_id;sensor_type;location;lat;lon;timestamp;temperature;humidity
13389;DHT22;6764;53.250;10.410;2023-04-03T00:01:35;3.10;99.90
13389;DHT22;6764;53.250;10.410;2023-04-03T00:04:02;3.10;99.90
13389;DHT22;6764;53.250;10.410;2023-04-03T00:06:27;3.10;99.90
13389;DHT22;6764;53.250;10.410;2023-04-03T00:08:53;3.00;99.90
13389;DHT22;6764;53.250;10.410;2023-04-03T00:11:19;3.00;99.90
13389;DHT22;6764;53.250;10.410;2023-04-03T00:13:45;3.00;99.90
13389;DHT22;6764;53.250;10.410;2023-04-03T00:16:11;3.10;99.90
13389;DHT22;6764;53.250;10.410;2023-04-03T00:18:39;3.10;99.90
13389;DHT22;6764;53.250;10.410;2023-04-03T00:21:05;3.10;99.90
13389;DHT22;6764;53.250;10.410;2023-04-03T00:23:31;3.00;99.90
13389;DHT22;6764;53.250;10.410;2023-04-03T00:25:56;3.00;99.90
13389;DHT22;6764;53.250;10.410;2023-04-03T00:28:22;3.00;99.90
13389;DHT22;6764;53.250;10.410;2023-04-03T00:30:51;3.00;99.90
13389;DHT22;6764;53.250;10.410;2023-04-03T00:33:17;3.00;99.90
13389;DHT22;6764;53.250;10.410;2023-04-03T00:35:43;3.00;99.90
13389;DHT22;6764;53.250;10.410;2023-04-03T00:38:09;3.00;99.90
13389;DHT22;6764;53.250;10.410;2023-04-03T00:40:41;3.00;99.90
13389;DHT22;6764;53.250;10.410;2023-04-03T00:43:33;2.90;99.90
13389;DHT22;6764;53.250;10.410;2023-04-03T00:45:59;3.00;99.90
13389;DHT22;6764;53.250;10.410;2023-04-03T00:48:34;3.00;99.90
13389;DHT22;6764;53.250;10.410;2023-04-03T00:51:01;2.90;99.90
13389;DHT22;6764;53.250;10.410;2023-04-03T00:53:37;2.90;99.90
13389;DHT22;6764;53.250;10.410;2023-04-03T00:56:06;2.90;99.90
13389;DHT22;6764;53.250;10.410;2023-04-03T00:58:38;2.90;99.90
13389;DHT22;6764;53.250;10.410;2023-04-03T01:01:07;2.80;99.90
13389;DHT22;6764;53.250;10.410;2023-04-03T01:03:33;2.80;99.90
13389;DHT22;6764;53.250;10.410;2023-04-03T01:05:59;2.80;99.90
13389;DHT22;6764;53.250;10.410;2023-04-03T01:08:25;2.80;99.90
13389;DHT22;6764;53.250;10.410;2023-04-03T01:10:51;2.80;99.90
13389;DHT22;6764;53.250;10.410;2023-04-03T01:13:35;2.80;99.90
13389;DHT22;6764;53.250;10.410;2023-04-03T01:16:02;2.80;99.90
13389;DHT22;6764;53.250;10.410;2023-04-03T01:18:29;2.80;99.90
13389;DHT22;6764;53.250;10.410;2023-04-03T01:26:11;2.70;99.90
13389;DHT22;6764;53.250;10.410;2023-04-03T01:28:38;2.60;99.90
13389;DHT22;6764;53.250;10.410;2023-04-03T01:31:20;2.70;99.90
13389;DHT22;6764;53.250;10.410;2023-04-03T01:33:47;2.70;99.90
13389;DHT22;6764;53.250;10.410;2023-04-03T01:36:17;2.60;99.90
13389;DHT22;6764;53.250;10.410;2023-04-03T01:38:43;2.60;99.90
13389;DHT22;6764;53.250;10.410;2023-04-03T01:41:08;2.60;99.90
13389;DHT22;6764;53.250;10.410;2023-04-03T01:43:34;2.60;99.90
13389;DHT22;6764;53.250;10.410;2023-04-03T01:46:00;2.60;99.90
13389;DHT22;6764;53.250;10.410;2023-04-03T01:48:25;2.50;99.90
13389;DHT22;6764;53.250;10.410;2023-04-03T01:50:51;2.60;99.90
13389;DHT22;6764;53.250;10.410;2023-04-03T01:53:17;2.50;99.90
13389;DHT22;6764;53.250;10.410;2023-04-03T01:55:42;2.40;99.90
13389;DHT22;6764;53.250;10.410;2023-04-03T01:58:08;2.40;99.90
13389;DHT22;6764;53.250;10.410;2023-04-03T02:00:33;2.40;99.90
13389;DHT22;6764;53.250;10.410;2023-04-03T02:02:59;2.30;99.90
13389;DHT22;6764;53.250;10.410;2023-04-03T02:05:25;2.30;99.90
13389;DHT22;6764;53.250;10.410;2023-04-03T02:07:50;2.40;99.90
13389;DHT22;6764;53.250;10.410;2023-04-03T02:10:17;2.40;99.90
13389;DHT22;6764;53.250;10.410;2023-04-03T02:12:43;2.40;99.90
13389;DHT22;6764;53.250;10.410;2023-04-03T02:15:09;2.30;99.90
13389;DHT22;6764;53.250;10.410;2023-04-03T02:17:35;2.30;99.90
13389;DHT22;6764;53.250;10.410;2023-04-03T02:20:01;2.30;99.90
13389;DHT22;6764;53.250;10.410;2023-04-03T02:22:27;2.30;99.90
13389;DHT22;6764;53.250;10.410;2023-04-03T02:24:52;2.40;99.90
13389;DHT22;6764;53.250;10.410;2023-04-03T02:27:18;2.40;99.90
13389;DHT22;6764;53.250;10.410;2023-04-03T02:29:43;2.40;99.90
13389;DHT22;6764;53.250;10.410;2023-04-03T02:32:09;2.30;99.90
13389;DHT22;6764;53.250;10.410;2023-04-03T02:34:35;2.30;99.90
13389;DHT22;6764;53.250;10.410;2023-04-03T02:37:00;2.30;99.90
13389;DHT22;6764;53.250;10.410;2023-04-03T02:39:26;2.30;99.90
13389;DHT22;6764;53.250;10.410;2023-04-03T02:41:51;2.30;99.90
13389;DHT22;6764;53.250;10.410;2023-04-03T02:44:17;2.20;99.90
13389;DHT22;6764;53.250;10.410;2023-04-03T02:46:44;2.30;99.90
13389;DHT22;6764;53.250;10.410;2023-04-03T02:49:10;2.20;99.90
13389;DHT22;6764;53.250;10.410;2023-04-03T02:51:35;2.20;99.90
13389;DHT22;6764;53.250;10.410;2023-04-03T02:54:01;2.10;99.90
13389;DHT22;6764;53.250;10.410;2023-04-03T02:56:26;2.00;99.90
13389;DHT22;6764;53.250;10.410;2023-04-03T02:58:52;2.10;99.90
13389;DHT22;6764;53.250;10.410;2023-04-03T03:01:18;2.00;99.90
13389;DHT22;6764;53.250;10.410;2023-04-03T03:03:44;2.00;99.90
13389;DHT22;6764;53.250;10.410;2023-04-03T03:06:12;1.90;99.90
13389;DHT22;6764;53.250;10.410;2023-04-03T03:08:39;1.90;99.90
13389;DHT22;6764;53.250;10.410;2023-04-03T03:11:05;2.00;99.90
13389;DHT22;6764;53.250;10.410;2023-04-03T03:13:31;2.00;99.90
13389;DHT22;6764;53.250;10.410;2023-04-03T03:15:57;2.10;99.90
13389;DHT22;6764;53.250;10.410;2023-04-03T03:18:23;2.00;99.90
13389;DHT22;6764;53.250;10.410;2023-04-03T03:20:56;2.00;99.90
13389;DHT22;6764;53.250;10.410;2023-04-03T03:23:24;2.00;99.90
13389;DHT22;6764;53.250;10.410;2023-04-03T03:26:15;2.00;99.90
13389;DHT22;6764;53.250;10.410;2023-04-03T03:28:40;2.00;99.90
13389;DHT22;6764;53.250;10.410;2023-04-03T03:31:07;2.10;99.90
13389;DHT22;6764;53.250;10.410;2023-04-03T03:33:32;2.00;99.90
13389;DHT22;6764;53.250;10.410;2023-04-03T03:35:58;2.00;99.90
13389;DHT22;6764;53.250;10.410;2023-04-03T03:38:24;1.90;99.90
13389;DHT22;6764;53.250;10.410;2023-04-03T03:40:50;1.90;99.90
13389;DHT22;6764;53.250;10.410;2023-04-03T03:43:17;1.80;99.90
13389;DHT22;6764;53.250;10.410;2023-04-03T03:45:43;1.90;99.90
13389;DHT22;6764;53.250;10.410;2023-04-03T03:48:09;2.00;99.90
13389;DHT22;6764;53.250;10.410;2023-04-03T03:50:35;2.00;99.90
13389;DHT22;6764;53.250;10.410;2023-04-03T03:53:01;2.00;99.90
13389;DHT22;6764;53.250;10.410;2023-04-03T03:55:27;2.00;99.90
13389;DHT22;6764;53.250;10.410;2023-04-03T03:57:52;2.00;99.90
13389;DHT22;6764;53.250;10.410;2023-04-03T04:00:18;2.00;99.90
13389;DHT22;6764;53.250;10.410;2023-04-03T04:02:44;2.00;99.90
13389;DHT22;6764;53.250;10.410;2023-04-03T04:05:10;2.00;99.90
13389;DHT22;6764;53.250;10.410;2023-04-03T04:07:35;2.10;99.90
13389;DHT22;6764;53.250;10.410;2023-04-03T04:10:01;2.00;99.90
13389;DHT22;6764;53.250;10.410;2023-04-03T04:12:27;2.00;99.90
13389;DHT22;6764;53.250;10.410;2023-04-03T04:14:53;2.00;99.90
13389;DHT22;6764;53.250;10.410;2023-04-03T04:17:18;1.90;99.90
13389;DHT22;6764;53.250;10.410;2023-04-03T04:19:45;2.00;99.90
13389;DHT22;6764;53.250;10.410;2023-04-03T04:22:10;2.00;99.90
13389;DHT22;6764;53.250;10.410;2023-04-03T04:24:36;2.00;99.90
13389;DHT22;6764;53.250;10.410;2023-04-03T04:27:02;1.90;99.90
13389;DHT22;6764;53.250;10.410;2023-04-03T04:29:28;1.90;99.90
13389;DHT22;6764;53.250;10.410;2023-04-03T04:31:53;2.00;99.90
13389;DHT22;6764;53.250;10.410;2023-04-03T04:34:22;1.90;99.90
13389;DHT22;6764;53.250;10.410;2023-04-03T04:36:47;1.90;99.90
13389;DHT22;6764;53.250;10.410;2023-04-03T04:39:13;1.80;99.90
13389;DHT22;6764;53.250;10.410;2023-04-03T04:41:38;1.80;99.90
13389;DHT22;6764;53.250;10.410;2023-04-03T04:44:04;1.80;99.90
13389;DHT22;6764;53.250;10.410;2023-04-03T04:46:30;1.80;99.90
13389;DHT22;6764;53.250;10.410;2023-04-03T04:48:55;1.70;99.90
13389;DHT22;6764;53.250;10.410;2023-04-03T04:51:21;1.70;99.90
13389;DHT22;6764;53.250;10.410;2023-04-03T04:53:46;1.70;99.90
13389;DHT22;6764;53.250;10.410;2023-04-03T04:56:12;1.70;99.90
13389;DHT22;6764;53.250;10.410;2023-04-03T04:58:38;1.70;99.90
13389;DHT22;6764;53.250;10.410;2023-04-03T05:01:06;1.70;99.90
13389;DHT22;6764;53.250;10.410;2023-04-03T05:03:32;1.60;99.90
13389;DHT22;6764;53.250;10.410;2023-04-03T05:05:58;1.60;99.90
13389;DHT22;6764;53.250;10.410;2023-04-03T05:08:25;1.70;99.90
13389;DHT22;6764;53.250;10.410;2023-04-03T05:10:50;1.70;99.90
13389;DHT22;6764;53.250;10.410;2023-04-03T05:13:16;1.70;99.90
13389;DHT22;6764;53.250;10.410;2023-04-03T05:15:42;1.80;99.90
13389;DHT22;6764;53.250;10.410;2023-04-03T05:18:07;1.80;99.90
13389;DHT22;6764;53.250;10.410;2023-04-03T05:20:33;1.80;99.90
13389;DHT22;6764;53.250;10.410;2023-04-03T05:23:00;1.90;99.90
13389;DHT22;6764;53.250;10.410;2023-04-03T05:25:26;1.90;99.90
13389;DHT22;6764;53.250;10.410;2023-04-03T05:27:52;1.90;99.90
13389;DHT22;6764;53.250;10.410;2023-04-03T05:30:17;2.00;99.90
13389;DHT22;6764;53.250;10.410;2023-04-03T05:32:43;2.00;99.90
13389;DHT22;6764;53.250;10.410;2023-04-03T05:35:10;2.00;99.90
13389;DHT22;6764;53.250;10.410;2023-04-03T05:37:36;2.00;99.90
13389;DHT22;6764;53.250;10.410;2023-04-03T05:40:02;2.00;99.90
13389;DHT22;6764;53.250;10.410;2023-04-03T05:42:28;2.00;99.90
13389;DHT22;6764;53.250;10.410;2023-04-03T05:44:54;2.00;99.90
13389;DHT22;6764;53.250;10.410;2023-04-03T05:47:20;2.10;99.90
13389;DHT22;6764;53.250;10.410;2023-04-03T05:49:46;2.10;99.90
13389;DHT22;6764;53.250;10.410;2023-04-03T05:52:20;2.20;99.90
13389;DHT22;6764;53.250;10.410;2023-04-03T05:54:47;2.20;99.90
13389;DHT22;6764;53.250;10.410;2023-04-03T05:57:14;2.20;99.90
13389;DHT22;6764;53.250;10.410;2023-04-03T05:59:42;2.20;99.90
13389;DHT22;6764;53.250;10.410;2023-04-03T06:02:17;2.30;99.90
13389;DHT22;6764;53.250;10.410;2023-04-03T06:04:43;2.30;99.90
13389;DHT22;6764;53.250;10.410;2023-04-03T06:07:12;2.40;99.90
13389;DHT22;6764;53.250;10.410;2023-04-03T06:09:38;2.40;99.90
13389;DHT22;6764;53.250;10.410;2023-04-03T06:12:04;2.30;99.90
13389;DHT22;6764;53.250;10.410;2023-04-03T06:14:30;2.40;99.90
13389;DHT22;6764;53.250;10.410;2023-04-03T06:16:56;2.40;99.90
13389;DHT22;6764;53.250;10.410;2023-04-03T06:19:22;2.50;99.90
13389;DHT22;6764;53.250;10.410;2023-04-03T06:21:47;2.60;99.90
13389;DHT22;6764;53.250;10.410;2023-04-03T06:24:16;2.60;99.90
13389;DHT22;6764;53.250;10.410;2023-04-03T06:26:42;2.70;99.90
13389;DHT22;6764;53.250;10.410;2023-04-03T06:29:08;2.80;99.90
13389;DHT22;6764;53.250;10.410;2023-04-03T06:31:34;2.80;99.90
13389;DHT22;6764;53.250;10.410;2023-04-03T06:34:02;2.90;99.90
13389;DHT22;6764;53.250;10.410;2023-04-03T06:36:29;2.90;99.90
13389;DHT22;6764;53.250;10.410;2023-04-03T06:38:55;3.00;99.90
13389;DHT22;6764;53.250;10.410;2023-04-03T06:41:21;3.00;99.90
13389;DHT22;6764;53.250;10.410;2023-04-03T06:43:47;3.00;99.90
13389;DHT22;6764;53.250;10.410;2023-04-03T06:46:17;3.00;99.90
13389;DHT22;6764;53.250;10.410;2023-04-03T06:48:43;3.00;99.90
13389;DHT22;6764;53.250;10.410;2023-04-03T06:51:23;3.20;99.90
13389;DHT22;6764;53.250;10.410;2023-04-03T06:53:51;3.20;99.90
13389;DHT22;6764;53.250;10.410;2023-04-03T06:56:17;3.30;99.90
13389;DHT22;6764;53.250;10.410;2023-04-03T06:58:44;3.30;99.90
13389;DHT22;6764;53.250;10.410;2023-04-03T07:01:12;3.30;99.90
13389;DHT22;6764;53.250;10.410;2023-04-03T07:03:38;3.40;99.90
13389;DHT22;6764;53.250;10.410;2023-04-03T07:06:05;3.60;99.90
13389;DHT22;6764;53.250;10.410;2023-04-03T07:08:33;3.80;99.90
13389;DHT22;6764;53.250;10.410;2023-04-03T07:10:59;3.70;99.90
13389;DHT22;6764;53.250;10.410;2023-04-03T07:13:24;3.90;99.90
13389;DHT22;6764;53.250;10.410;2023-04-03T07:15:50;4.10;99.90
13389;DHT22;6764;53.250;10.410;2023-04-03T07:18:16;4.20;99.90
13389;DHT22;6764;53.250;10.410;2023-04-03T07:20:42;4.20;99.90
13389;DHT22;6764;53.250;10.410;2023-04-03T07:23:08;4.20;99.90
13389;DHT22;6764;53.250;10.410;2023-04-03T07:25:34;4.30;99.90
13389;DHT22;6764;53.250;10.410;2023-04-03T07:27:59;4.40;99.90
13389;DHT22;6764;53.250;10.410;2023-04-03T07:30:25;4.50;99.90
13389;DHT22;6764;53.250;10.410;2023-04-03T07:32:51;4.60;99.90
13389;DHT22;6764;53.250;10.410;2023-04-03T07:35:17;4.70;99.90
13389;DHT22;6764;53.250;10.410;2023-04-03T07:37:43;4.70;99.90
13389;DHT22;6764;53.250;10.410;2023-04-03T07:40:09;4.80;99.90
13389;DHT22;6764;53.250;10.410;2023-04-03T07:42:35;4.80;99.90
13389;DHT22;6764;53.250;10.410;2023-04-03T07:45:03;4.90;99.90
13389;DHT22;6764;53.250;10.410;2023-04-03T07:47:29;5.00;99.90
13389;DHT22;6764;53.250;10.410;2023-04-03T07:49:54;5.00;99.90
13389;DHT22;6764;53.250;10.410;2023-04-03T07:52:22;5.10;99.90
13389;DHT22;6764;53.250;10.410;2023-04-03T07:54:48;5.10;99.90
13389;DHT22;6764;53.250;10.410;2023-04-03T07:57:14;5.10;99.90
13389;DHT22;6764;53.250;10.410;2023-04-03T07:59:40;5.20;99.90
13389;DHT22;6764;53.250;10.410;2023-04-03T08:02:09;5.30;99.90
13389;DHT22;6764;53.250;10.410;2023-04-03T08:04:34;5.40;99.90
13389;DHT22;6764;53.250;10.410;2023-04-03T08:07:01;5.40;99.90
13389;DHT22;6764;53.250;10.410;2023-04-03T08:09:26;5.60;99.90
13389;DHT22;6764;53.250;10.410;2023-04-03T08:11:52;5.60;99.90
13389;DHT22;6764;53.250;10.410;2023-04-03T08:14:19;5.60;99.90
13389;DHT22;6764;53.250;10.410;2023-04-03T08:16:47;5.60;99.90
13389;DHT22;6764;53.250;10.410;2023-04-03T08:19:14;5.60;99.90
13389;DHT22;6764;53.250;10.410;2023-04-03T08:21:41;5.70;99.90
13389;DHT22;6764;53.250;10.410;2023-04-03T08:24:07;6.00;99.90
13389;DHT22;6764;53.250;10.410;2023-04-03T08:26:33;7.40;99.90
13389;DHT22;6764;53.250;10.410;2023-04-03T08:28:58;9.20;99.90
13389;DHT22;6764;53.250;10.410;2023-04-03T08:31:24;11.00;98.90
13389;DHT22;6764;53.250;10.410;2023-04-03T08:33:50;12.90;95.50
13389;DHT22;6764;53.250;10.410;2023-04-03T08:36:27;14.80;90.30
13389;DHT22;6764;53.250;10.410;2023-04-03T08:38:53;16.30;83.60
13389;DHT22;6764;53.250;10.410;2023-04-03T08:44:33;18.80;69.50
13389;DHT22;6764;53.250;10.410;2023-04-03T08:49:50;19.60;60.60
13389;DHT22;6764;53.250;10.410;2023-04-03T08:54:57;20.10;55.60
13389;DHT22;6764;53.250;10.410;2023-04-03T08:57:34;20.40;56.00
13389;DHT22;6764;53.250;10.410;2023-04-03T09:00:19;20.90;54.10
13389;DHT22;6764;53.250;10.410;2023-04-03T09:02:51;21.70;52.00
13389;DHT22;6764;53.250;10.410;2023-04-03T09:05:19;21.90;51.90
13389;DHT22;6764;53.250;10.410;2023-04-03T09:07:52;21.90;51.20
13389;DHT22;6764;53.250;10.410;2023-04-03T09:10:25;23.20;50.30
13389;DHT22;6764;53.250;10.410;2023-04-03T09:13:01;22.90;46.50
13389;DHT22;6764;53.250;10.410;2023-04-03T09:15:30;23.20;46.30
13389;DHT22;6764;53.250;10.410;2023-04-03T09:18:19;22.80;45.30
13389;DHT22;6764;53.250;10.410;2023-04-03T09:20:49;23.50;45.10
13389;DHT22;6764;53.250;10.410;2023-04-03T09:23:38;23.20;44.00
13389;DHT22;6764;53.250;10.410;2023-04-03T09:26:11;23.10;44.10
13389;DHT22;6764;53.250;10.410;2023-04-03T09:28:40;23.30;44.80
13389;DHT22;6764;53.250;10.410;2023-04-03T09:31:25;22.90;44.80
13389;DHT22;6764;53.250;10.410;2023-04-03T09:34:01;23.30;44.70
13389;DHT22;6764;53.250;10.410;2023-04-03T09:36:38;24.20;44.00
13389;DHT22;6764;53.250;10.410;2023-04-03T09:39:07;25.00;43.00
13389;DHT22;6764;53.250;10.410;2023-04-03T09:41:35;24.90;42.70
13389;DHT22;6764;53.250;10.410;2023-04-03T09:44:00;24.70;42.80
13389;DHT22;6764;53.250;10.410;2023-04-03T09:46:33;25.50;42.50
13389;DHT22;6764;53.250;10.410;2023-04-03T09:49:04;25.70;41.80
13389;DHT22;6764;53.250;10.410;2023-04-03T09:51:31;25.70;41.60
13389;DHT22;6764;53.250;10.410;2023-04-03T09:53:57;25.50;41.10
13389;DHT22;6764;53.250;10.410;2023-04-03T09:56:28;24.70;41.20
13389;DHT22;6764;53.250;10.410;2023-04-03T10:06:35;24.20;40.20
13389;DHT22;6764;53.250;10.410;2023-04-03T10:11:57;24.60;38.60
13389;DHT22;6764;53.250;10.410;2023-04-03T10:14:22;23.60;39.50
13389;DHT22;6764;53.250;10.410;2023-04-03T10:17:01;23.60;39.20
13389;DHT22;6764;53.250;10.410;2023-04-03T10:20:48;23.90;39.50
13389;DHT22;6764;53.250;10.410;2023-04-03T10:23:02;23.30;40.00
13389;DHT22;6764;53.250;10.410;2023-04-03T10:28:52;22.10;40.20
13389;DHT22;6764;53.250;10.410;2023-04-03T10:31:28;21.10;41.00
13389;DHT22;6764;53.250;10.410;2023-04-03T10:34:06;20.30;41.50
13389;DHT22;6764;53.250;10.410;2023-04-03T10:36:46;19.40;43.70
13389;DHT22;6764;53.250;10.410;2023-04-03T10:42:11;17.90;42.70
13389;DHT22;6764;53.250;10.410;2023-04-03T10:52:57;15.70;47.80
13389;DHT22;6764;53.250;10.410;2023-04-03T10:55:36;14.50;48.60
13389;DHT22;6764;53.250;10.410;2023-04-03T10:58:05;14.00;50.00
13389;DHT22;6764;53.250;10.410;2023-04-03T11:00:43;14.70;50.00
13389;DHT22;6764;53.250;10.410;2023-04-03T11:03:38;15.70;47.90
13389;DHT22;6764;53.250;10.410;2023-04-03T11:06:05;16.30;47.30
13389;DHT22;6764;53.250;10.410;2023-04-03T11:11:19;17.00;47.40
13389;DHT22;6764;53.250;10.410;2023-04-03T11:13:52;17.00;45.00
13389;DHT22;6764;53.250;10.410;2023-04-03T11:16:28;16.30;46.50
13389;DHT22;6764;53.250;10.410;2023-04-03T11:19:03;16.70;47.40
13389;DHT22;6764;53.250;10.410;2023-04-03T11:25:37;14.90;48.30
13389;DHT22;6764;53.250;10.410;2023-04-03T11:27:47;14.00;49.70
13389;DHT22;6764;53.250;10.410;2023-04-03T11:35:37;12.60;52.50
13389;DHT22;6764;53.250;10.410;2023-04-03T11:38:17;12.40;52.60
13389;DHT22;6764;53.250;10.410;2023-04-03T11:40:45;12.90;51.80
13389;DHT22;6764;53.250;10.410;2023-04-03T11:43:31;13.00;51.90
13389;DHT22;6764;53.250;10.410;2023-04-03T11:46:03;12.60;52.60
13389;DHT22;6764;53.250;10.410;2023-04-03T11:50:58;11.70;55.80
13389;DHT22;6764;53.250;10.410;2023-04-03T11:53:33;11.50;56.60
13389;DHT22;6764;53.250;10.410;2023-04-03T12:01:51;11.20;57.30
13389;DHT22;6764;53.250;10.410;2023-04-03T12:04:18;11.40;55.70
13389;DHT22;6764;53.250;10.410;2023-04-03T12:10:12;10.90;55.50
13389;DHT22;6764;53.250;10.410;2023-04-03T12:12:55;10.70;57.20
13389;DHT22;6764;53.250;10.410;2023-04-03T12:15:25;11.00;57.80
13389;DHT22;6764;53.250;10.410;2023-04-03T12:17:51;11.00;57.60
13389;DHT22;6764;53.250;10.410;2023-04-03T12:23:27;10.60;56.90
13389;DHT22;6764;53.250;10.410;2023-04-03T12:26:18;10.60;56.50
13389;DHT22;6764;53.250;10.410;2023-04-03T12:28:45;10.70;56.10
13389;DHT22;6764;53.250;10.410;2023-04-03T12:31:12;11.00;56.00
13389;DHT22;6764;53.250;10.410;2023-04-03T12:33:56;11.10;56.90
13389;DHT22;6764;53.250;10.410;2023-04-03T12:39:33;10.90;59.40
13389;DHT22;6764;53.250;10.410;2023-04-03T12:47:32;10.40;58.70
13389;DHT22;6764;53.250;10.410;2023-04-03T12:50:02;10.40;59.90
13389;DHT22;6764;53.250;10.410;2023-04-03T12:52:39;10.30;59.00
13389;DHT22;6764;53.250;10.410;2023-04-03T12:55:20;10.30;59.60
13389;DHT22;6764;53.250;10.410;2023-04-03T12:57:47;10.60;59.70
13389;DHT22;6764;53.250;10.410;2023-04-03T13:00:33;10.80;58.80
13389;DHT22;6764;53.250;10.410;2023-04-03T13:03:01;10.70;59.40
13389;DHT22;6764;53.250;10.410;2023-04-03T13:05:28;10.50;59.70
13389;DHT22;6764;53.250;10.410;2023-04-03T13:08:04;10.40;59.10
13389;DHT22;6764;53.250;10.410;2023-04-03T13:10:31;10.50;58.50
13389;DHT22;6764;53.250;10.410;2023-04-03T13:13:08;10.60;56.90
13389;DHT22;6764;53.250;10.410;2023-04-03T13:15:48;10.50;57.20
13389;DHT22;6764;53.250;10.410;2023-04-03T13:20:48;10.40;57.90
13389;DHT22;6764;53.250;10.410;2023-04-03T13:23:16;10.40;57.80
13389;DHT22;6764;53.250;10.410;2023-04-03T13:25:44;10.40;57.80
13389;DHT22;6764;53.250;10.410;2023-04-03T13:28:17;10.40;58.30
13389;DHT22;6764;53.250;10.410;2023-04-03T13:31:09;10.50;59.60
13389;DHT22;6764;53.250;10.410;2023-04-03T13:34:13;10.70;60.60
13389;DHT22;6764;53.250;10.410;2023-04-03T13:36:55;10.70;60.90
13389;DHT22;6764;53.250;10.410;2023-04-03T13:39:28;10.60;59.80
13389;DHT22;6764;53.250;10.410;2023-04-03T13:41:57;10.60;58.80
13389;DHT22;6764;53.250;10.410;2023-04-03T13:47:01;10.30;58.20
13389;DHT22;6764;53.250;10.410;2023-04-03T13:49:41;10.20;59.00
13389;DHT22;6764;53.250;10.410;2023-04-03T13:52:27;10.10;58.70
13389;DHT22;6764;53.250;10.410;2023-04-03T13:55:03;10.30;58.40
13389;DHT22;6764;53.250;10.410;2023-04-03T13:57:36;10.30;58.30
13389;DHT22;6764;53.250;10.410;2023-04-03T14:02:56;10.30;57.80
13389;DHT22;6764;53.250;10.410;2023-04-03T14:05:22;10.10;58.10
13389;DHT22;6764;53.250;10.410;2023-04-03T14:07:49;9.80;59.60
13389;DHT22;6764;53.250;10.410;2023-04-03T14:10:16;9.70;61.00
13389;DHT22;6764;53.250;10.410;2023-04-03T14:12:42;9.80;61.60
13389;DHT22;6764;53.250;10.410;2023-04-03T14:15:18;10.00;59.20
13389;DHT22;6764;53.250;10.410;2023-04-03T14:17:45;9.80;59.70
13389;DHT22;6764;53.250;10.410;2023-04-03T14:20:15;9.80;60.90
13389;DHT22;6764;53.250;10.410;2023-04-03T14:22:41;10.00;60.00
13389;DHT22;6764;53.250;10.410;2023-04-03T14:25:07;10.00;59.80
13389;DHT22;6764;53.250;10.410;2023-04-03T14:27:39;10.10;60.10
13389;DHT22;6764;53.250;10.410;2023-04-03T14:30:09;10.00;57.80
13389;DHT22;6764;53.250;10.410;2023-04-03T14:32:37;9.90;59.00
13389;DHT22;6764;53.250;10.410;2023-04-03T14:35:03;9.90;58.60
13389;DHT22;6764;53.250;10.410;2023-04-03T14:37:30;9.70;59.40
13389;DHT22;6764;53.250;10.410;2023-04-03T14:39:57;9.40;59.60
13389;DHT22;6764;53.250;10.410;2023-04-03T14:42:27;9.20;60.00
13389;DHT22;6764;53.250;10.410;2023-04-03T14:44:53;9.20;60.30
13389;DHT22;6764;53.250;10.410;2023-04-03T14:47:21;9.30;60.50
13389;DHT22;6764;53.250;10.410;2023-04-03T14:49:47;9.70;60.50
13389;DHT22;6764;53.250;10.410;2023-04-03T14:52:25;10.00;58.60
13389;DHT22;6764;53.250;10.410;2023-04-03T14:54:51;10.20;58.90
13389;DHT22;6764;53.250;10.410;2023-04-03T14:57:17;10.40;58.20
13389;DHT22;6764;53.250;10.410;2023-04-03T14:59:44;10.20;58.10
13389;DHT22;6764;53.250;10.410;2023-04-03T15:02:28;10.10;58.60
13389;DHT22;6764;53.250;10.410;2023-04-03T15:04:55;9.80;59.70
13389;DHT22;6764;53.250;10.410;2023-04-03T15:07:21;9.70;60.40
13389;DHT22;6764;53.250;10.410;2023-04-03T15:09:47;9.50;61.50
13389;DHT22;6764;53.250;10.410;2023-04-03T15:12:13;9.20;62.00
13389;DHT22;6764;53.250;10.410;2023-04-03T15:14:39;9.20;61.40
13389;DHT22;6764;53.250;10.410;2023-04-03T15:17:05;9.10;60.00
13389;DHT22;6764;53.250;10.410;2023-04-03T15:19:36;9.00;60.40
13389;DHT22;6764;53.250;10.410;2023-04-03T15:22:03;9.20;60.00
13389;DHT22;6764;53.250;10.410;2023-04-03T15:24:28;9.20;59.40
13389;DHT22;6764;53.250;10.410;2023-04-03T15:26:54;9.10;59.30
13389;DHT22;6764;53.250;10.410;2023-04-03T15:29:20;9.10;58.30
13389;DHT22;6764;53.250;10.410;2023-04-03T15:31:45;9.00;59.70
13389;DHT22;6764;53.250;10.410;2023-04-03T15:34:11;8.80;59.30
13389;DHT22;6764;53.250;10.410;2023-04-03T15:36:36;8.80;60.40
13389;DHT22;6764;53.250;10.410;2023-04-03T15:39:03;8.80;59.30
13389;DHT22;6764;53.250;10.410;2023-04-03T15:41:28;8.70;59.90
13389;DHT22;6764;53.250;10.410;2023-04-03T15:43:54;8.70;59.70
13389;DHT22;6764;53.250;10.410;2023-04-03T15:46:20;8.70;58.90
13389;DHT22;6764;53.250;10.410;2023-04-03T15:48:45;8.70;58.50
13389;DHT22;6764;53.250;10.410;2023-04-03T15:51:11;8.60;58.00
13389;DHT22;6764;53.250;10.410;2023-04-03T15:53:37;8.60;58.80
13389;DHT22;6764;53.250;10.410;2023-04-03T15:56:02;8.70;59.90
13389;DHT22;6764;53.250;10.410;2023-04-03T15:58:29;8.90;60.10
13389;DHT22;6764;53.250;10.410;2023-04-03T16:00:55;8.80;59.30
13389;DHT22;6764;53.250;10.410;2023-04-03T16:03:21;8.70;58.60
13389;DHT22;6764;53.250;10.410;2023-04-03T16:05:49;8.60;58.80
13389;DHT22;6764;53.250;10.410;2023-04-03T16:08:16;8.60;58.90
13389;DHT22;6764;53.250;10.410;2023-04-03T16:10:43;8.60;58.10
13389;DHT22;6764;53.250;10.410;2023-04-03T16:13:10;8.60;59.70
13389;DHT22;6764;53.250;10.410;2023-04-03T16:15:36;8.70;61.40
13389;DHT22;6764;53.250;10.410;2023-04-03T16:18:02;8.80;62.30
13389;DHT22;6764;53.250;10.410;2023-04-03T16:20:28;8.70;63.30
13389;DHT22;6764;53.250;10.410;2023-04-03T16:22:57;8.60;62.90
13389;DHT22;6764;53.250;10.410;2023-04-03T16:25:23;8.50;62.30
13389;DHT22;6764;53.250;10.410;2023-04-03T16:27:49;8.30;61.70
13389;DHT22;6764;53.250;10.410;2023-04-03T16:30:15;8.30;63.30
13389;DHT22;6764;53.250;10.410;2023-04-03T16:32:40;8.10;65.50
13389;DHT22;6764;53.250;10.410;2023-04-03T16:35:06;8.10;65.40
13389;DHT22;6764;53.250;10.410;2023-04-03T16:37:32;8.10;65.80
13389;DHT22;6764;53.250;10.410;2023-04-03T16:39:58;8.10;65.30
13389;DHT22;6764;53.250;10.410;2023-04-03T16:42:24;7.90;65.80
13389;DHT22;6764;53.250;10.410;2023-04-03T16:44:50;7.90;66.70
13389;DHT22;6764;53.250;10.410;2023-04-03T16:47:16;8.00;66.40
13389;DHT22;6764;53.250;10.410;2023-04-03T16:49:45;7.80;66.70
13389;DHT22;6764;53.250;10.410;2023-04-03T16:52:10;7.70;67.10
13389;DHT22;6764;53.250;10.410;2023-04-03T16:54:36;7.70;67.40
13389;DHT22;6764;53.250;10.410;2023-04-03T16:57:02;7.70;67.60
13389;DHT22;6764;53.250;10.410;2023-04-03T16:59:27;7.70;67.40
13389;DHT22;6764;53.250;10.410;2023-04-03T17:01:53;7.60;67.30
13389;DHT22;6764;53.250;10.410;2023-04-03T17:04:20;7.60;65.90
13389;DHT22;6764;53.250;10.410;2023-04-03T17:06:46;7.60;65.70
13389;DHT22;6764;53.250;10.410;2023-04-03T17:09:11;7.50;64.30
13389;DHT22;6764;53.250;10.410;2023-04-03T17:11:37;7.50;65.00
13389;DHT22;6764;53.250;10.410;2023-04-03T17:14:03;7.40;63.70